Cynthiana, KY (41031)

9:03 AM EDT on July 26, 2016 (GMT -0400)
Cynthiana | | Change Station

Elev 0 ft 38.39 °N, 84.27 °W | Updated 40 seconds ago

Mostly Cloudy
Mostly Cloudy
77.9 °F
Feels Like 80 °F
N
0.6
Wind Variable Wind from NW
Gusts 1.9 mph

Today
High -- | Low -- °F
--% Chance of Precip.
Yesterday
High -- | Low -- °F
Precip. -- in
Pressure 30.09 in
Visibility 10.0 miles
Clouds Mostly Cloudy 400 ft
Heat Index 80 °F
Dew Point 74 °F
Humidity 88%
Rainfall 0.00 in
Snow Depth Not available.
6:34 AM 8:52 PM
Waning Gibbous, 55% visible
METAR KIOB 261255Z AUTO 00000KT 10SM BKN004 24/23 A3009 RMK AO2 P0001
Pressure 30.09 in
Visibility 10.0 miles
Clouds Mostly Cloudy 400 ft
Heat Index 80 °F
Dew Point 74 °F
Humidity 88%
Rainfall 0.00 in
Snow Depth Not available.
6:34 AM 8:52 PM
Waning Gibbous, 55% visible
METAR KIOB 261255Z AUTO 00000KT 10SM BKN004 24/23 A3009 RMK AO2 P0001

10-Day Weather Forecast

Almanac

Astronomy

Jul. 26, 2016 Rise Set
Actual Time
Civil Twilight
Nautical Twilight
Astronomical Twilight
Moon
Length of Visible Light
Length of Day
Tomorrow will be .
, % of the Moon is Illuminated

Today's Extremes

State Highs State Lows

Community

WunderPhotos

Upload Photos

1,927,580 photos uploaded!

WunderBlog® & News

Nearby

Air Quality

  Air Quality AQ Index Pollutant
Not available.

Snow Depth

Station Depth Elevation

Earthquake Activity

City Distance Mag. Time & Date
Minimum magnitude displayed is 2.5.

Coastal Water Temperatures

Place Temperature

Stations

Nearby Weather Stations

Station Location Temp. Windchill Dew Point Humidity Wind Precip. Elev Updated Type
                   

Watches & Warnings

There are currently no watches in effect.